Time;durP1;ratioP1;P1;durP2;ratioP2;P2;SDS_P1;SDS_P2;PMS_P1;PMS_P2;Temp;Humidity;BMP_temperature;BMP_pressure;BME280_temperature;BME280_humidity;BME280_pressure;Samples;Min_cycle;Max_cycle;Signal;HPM_P1;HPM_P2
2022/06/26 00:01:10;;;;;;;;;9.40;8.20;;;;;;;;4942090;29;8770;-68
2022/06/26 00:03:36;;;;;;;;;8.20;7.20;;;;;;;;4941079;29;8813;-68
2022/06/26 00:06:03;;;;;;;;;12.80;10.80;;;;;;;;4941235;29;9439;-68
2022/06/26 00:08:30;;;;;;;;;11.00;11.00;;;;;;;;4940212;29;8964;-68
2022/06/26 00:10:56;;;;;;;;;9.40;9.40;;;;;;;;4939783;29;8828;-68
2022/06/26 00:13:23;;;;;;;;;8.60;8.40;;;;;;;;4956015;29;8769;-67
2022/06/26 00:15:50;;;;;;;;;13.60;13.00;;;;;;;;4941280;29;8818;-68
2022/06/26 00:18:16;;;;;;;;;16.40;14.40;;;;;;;;4940953;29;8793;-68
2022/06/26 00:20:43;;;;;;;;;17.00;16.00;;;;;;;;4941011;29;8812;-68
2022/06/26 00:23:09;;;;;;;;;16.00;12.00;;;;;;;;4941010;29;8785;-69
2022/06/26 00:25:36;;;;;;;;;14.40;12.20;;;;;;;;4940664;28;9474;-69
2022/06/26 00:28:03;;;;;;;;;9.60;9.20;;;;;;;;4956164;28;9438;-68
2022/06/26 00:30:29;;;;;;;;;11.20;9.60;;;;;;;;4940586;28;8782;-68
2022/06/26 00:32:56;;;;;;;;;11.00;9.60;;;;;;;;4940725;29;9546;-68
2022/06/26 00:35:23;;;;;;;;;12.00;11.80;;;;;;;;4940632;28;8794;-68
2022/06/26 00:37:49;;;;;;;;;10.20;9.40;;;;;;;;4940970;29;8793;-69
2022/06/26 00:40:16;;;;;;;;;15.60;11.60;;;;;;;;4941240;29;8806;-69
2022/06/26 00:42:43;;;;;;;;;12.20;11.00;;;;;;;;4949280;28;8807;-68
2022/06/26 00:45:09;;;;;;;;;12.00;10.60;;;;;;;;4979021;28;8802;-68
2022/06/26 00:47:36;;;;;;;;;15.00;13.00;;;;;;;;4978740;28;8782;-68
2022/06/26 00:50:05;;;;;;;;;12.00;11.40;;;;;;;;4979087;28;8822;-68
2022/06/26 00:52:32;;;;;;;;;15.80;14.80;;;;;;;;4978794;28;8784;-68
2022/06/26 00:54:59;;;;;;;;;12.80;11.40;;;;;;;;4979643;28;8760;-68
2022/06/26 00:57:26;;;;;;;;;15.00;12.80;;;;;;;;4978652;28;9941;-68
2022/06/26 00:59:52;;;;;;;;;12.40;12.40;;;;;;;;4978921;28;8865;-69
2022/06/26 01:02:19;;;;;;;;;14.60;13.60;;;;;;;;4957848;28;8777;-68
2022/06/26 01:04:45;;;;;;;;;12.80;12.20;;;;;;;;4974170;28;8900;-69
2022/06/26 01:07:12;;;;;;;;;13.40;12.80;;;;;;;;4960072;28;8888;-69
2022/06/26 01:09:39;;;;;;;;;13.40;12.20;;;;;;;;4959032;28;8855;-69
2022/06/26 01:12:06;;;;;;;;;12.40;9.60;;;;;;;;4959243;28;9455;-68
2022/06/26 01:14:33;;;;;;;;;13.60;10.20;;;;;;;;4957932;28;8903;-68
2022/06/26 01:16:59;;;;;;;;;14.80;13.60;;;;;;;;4970357;28;8760;-68
2022/06/26 01:19:26;;;;;;;;;15.40;15.00;;;;;;;;4960974;28;8783;-67
2022/06/26 01:21:52;;;;;;;;;28.50;24.25;;;;;;;;4977425;28;8783;-68
2022/06/26 01:24:19;;;;;;;;;32.50;26.50;;;;;;;;4978145;28;8810;-68
2022/06/26 01:26:46;;;;;;;;;25.00;23.25;;;;;;;;4961137;28;8771;-68
2022/06/26 01:29:13;;;;;;;;;16.40;15.40;;;;;;;;4961013;28;8818;-68
2022/06/26 01:31:39;;;;;;;;;21.50;17.75;;;;;;;;4978114;28;8756;-68
2022/06/26 01:34:06;;;;;;;;;19.50;15.00;;;;;;;;4978729;28;8748;-68
2022/06/26 01:36:33;;;;;;;;;15.20;14.20;;;;;;;;4978210;28;8798;-68
2022/06/26 01:39:00;;;;;;;;;15.00;13.60;;;;;;;;4978098;28;8889;-68
2022/06/26 01:41:26;;;;;;;;;11.00;10.00;;;;;;;;4977748;28;8764;-68
2022/06/26 01:43:53;;;;;;;;;9.80;9.20;;;;;;;;4977835;28;8791;-68
2022/06/26 01:46:20;;;;;;;;;11.00;11.00;;;;;;;;4978590;28;8748;-68
2022/06/26 01:48:46;;;;;;;;;8.20;8.20;;;;;;;;4978002;28;9313;-68
2022/06/26 01:51:13;;;;;;;;;11.00;9.00;;;;;;;;4978298;28;8764;-68
2022/06/26 01:53:40;;;;;;;;;11.20;9.80;;;;;;;;4978363;28;8802;-68
2022/06/26 01:56:06;;;;;;;;;15.20;13.40;;;;;;;;4978184;28;8751;-68
2022/06/26 01:58:33;;;;;;;;;12.00;12.00;;;;;;;;4977574;28;9467;-72
2022/06/26 02:01:00;;;;;;;;;12.20;12.00;;;;;;;;4961126;28;8791;-74
2022/06/26 02:03:26;;;;;;;;;15.40;13.40;;;;;;;;4977845;28;8838;-71
2022/06/26 02:05:53;;;;;;;;;14.40;12.80;;;;;;;;4978151;28;8783;-71
2022/06/26 02:08:20;;;;;;;;;17.20;13.20;;;;;;;;4977848;28;8807;-69
2022/06/26 02:13:39;;;;;;;;;14.80;12.60;;;;;;;;4977284;28;8747;-71
2022/06/26 02:16:17;;;;;;;;;14.20;12.80;;;;;;;;4978627;28;8760;-76
2022/06/26 02:18:44;;;;;;;;;16.60;14.40;;;;;;;;4977614;28;9097;-69
2022/06/26 02:21:12;;;;;;;;;16.60;15.20;;;;;;;;4977507;28;8862;-74
2022/06/26 02:23:38;;;;;;;;;24.00;20.00;;;;;;;;4960783;28;8913;-74
2022/06/26 02:26:05;;;;;;;;;23.00;20.25;;;;;;;;4978067;28;8760;-73
2022/06/26 02:28:32;;;;;;;;;13.00;11.20;;;;;;;;4977681;28;9882;-67
2022/06/26 02:30:58;;;;;;;;;12.60;12.60;;;;;;;;4960854;28;9519;-75
2022/06/26 02:33:25;;;;;;;;;11.20;10.80;;;;;;;;4980833;28;8794;-74
2022/06/26 02:35:54;;;;;;;;;14.60;12.00;;;;;;;;4981404;28;8829;-74
2022/06/26 02:38:21;;;;;;;;;11.00;9.40;;;;;;;;4981215;28;9428;-71
2022/06/26 02:40:47;;;;;;;;;13.40;12.40;;;;;;;;4981497;28;8759;-72
2022/06/26 02:43:14;;;;;;;;;15.60;12.00;;;;;;;;4952720;29;9526;-71
2022/06/26 02:45:41;;;;;;;;;12.00;12.00;;;;;;;;4942414;28;8785;-71
2022/06/26 02:48:07;;;;;;;;;13.40;11.60;;;;;;;;4942623;28;8786;-67
2022/06/26 02:50:37;;;;;;;;;8.60;8.60;;;;;;;;4942408;28;9467;-73
2022/06/26 02:53:04;;;;;;;;;13.60;10.60;;;;;;;;4942913;28;8786;-75
2022/06/26 02:55:31;;;;;;;;;11.60;11.20;;;;;;;;4957159;29;8789;-74
2022/06/26 02:57:58;;;;;;;;;10.00;10.00;;;;;;;;4943421;29;8754;-70
2022/06/26 03:00:25;;;;;;;;;10.20;10.20;;;;;;;;4942495;28;9407;-75
2022/06/26 03:02:51;;;;;;;;;11.80;8.40;;;;;;;;4942388;28;8789;-74
2022/06/26 03:05:18;;;;;;;;;10.40;8.00;;;;;;;;4942630;28;9859;-63
2022/06/26 03:07:45;;;;;;;;;7.20;7.20;;;;;;;;4942440;28;8828;-70
2022/06/26 03:10:11;;;;;;;;;12.20;9.80;;;;;;;;4957638;29;8801;-75
2022/06/26 03:12:47;;;;;;;;;11.80;11.80;;;;;;;;4942135;28;8923;-71
2022/06/26 03:15:14;;;;;;;;;9.40;9.00;;;;;;;;4942205;28;8812;-72
2022/06/26 03:17:41;;;;;;;;;11.40;9.20;;;;;;;;4942030;28;8797;-74
2022/06/26 03:20:15;;;;;;;;;9.60;8.80;;;;;;;;4942440;28;8785;-74
2022/06/26 03:22:42;;;;;;;;;13.60;9.00;;;;;;;;4942075;28;8867;-62
2022/06/26 03:25:08;;;;;;;;;9.20;9.20;;;;;;;;4942951;29;8773;-66
2022/06/26 03:27:36;;;;;;;;;10.80;10.80;;;;;;;;4956352;28;8785;-75
2022/06/26 03:30:04;;;;;;;;;12.60;12.00;;;;;;;;4941882;28;8789;-75
2022/06/26 03:32:30;;;;;;;;;15.40;14.40;;;;;;;;4941744;28;8809;-75
2022/06/26 03:34:57;;;;;;;;;13.40;12.20;;;;;;;;4941911;28;8793;-75
2022/06/26 03:37:24;;;;;;;;;13.80;13.20;;;;;;;;4940870;28;8778;-69
2022/06/26 03:39:50;;;;;;;;;13.20;12.20;;;;;;;;4942262;29;8781;-64
2022/06/26 03:42:17;;;;;;;;;15.40;14.40;;;;;;;;4943509;28;8827;-68
2022/06/26 03:44:44;;;;;;;;;17.00;15.80;;;;;;;;4979711;28;8802;-76
2022/06/26 03:47:11;;;;;;;;;12.40;12.20;;;;;;;;4979895;28;8795;-68
2022/06/26 03:49:37;;;;;;;;;10.20;9.80;;;;;;;;4979857;28;8867;-60
2022/06/26 03:52:04;;;;;;;;;11.00;9.80;;;;;;;;4980840;28;8744;-76
2022/06/26 03:54:32;;;;;;;;;11.60;10.00;;;;;;;;4979994;28;8771;-64
2022/06/26 03:56:59;;;;;;;;;10.80;10.20;;;;;;;;4979854;28;8801;-75
2022/06/26 03:59:25;;;;;;;;;7.40;7.40;;;;;;;;4979722;28;8961;-61
2022/06/26 04:01:52;;;;;;;;;9.80;9.20;;;;;;;;4979925;28;8870;-75
2022/06/26 04:04:18;;;;;;;;;8.20;7.60;;;;;;;;4980335;28;8849;-68
2022/06/26 04:06:45;;;;;;;;;10.00;9.20;;;;;;;;4979744;28;8783;-75
2022/06/26 04:09:12;;;;;;;;;10.20;10.00;;;;;;;;4962942;28;8910;-75
2022/06/26 04:11:38;;;;;;;;;8.80;8.40;;;;;;;;4979559;28;8807;-74
2022/06/26 04:14:05;;;;;;;;;11.00;9.40;;;;;;;;4980034;28;8778;-75
2022/06/26 04:16:32;;;;;;;;;9.00;9.00;;;;;;;;4971294;28;8819;-61
2022/06/26 04:18:58;;;;;;;;;8.80;8.80;;;;;;;;4980528;28;8787;-75
2022/06/26 04:21:25;;;;;;;;;7.00;7.00;;;;;;;;4979324;28;8861;-76
2022/06/26 04:23:51;;;;;;;;;9.40;8.40;;;;;;;;4979694;28;8885;-70
2022/06/26 04:26:18;;;;;;;;;9.00;9.00;;;;;;;;4980002;28;8764;-62
2022/06/26 04:28:45;;;;;;;;;8.00;7.80;;;;;;;;4979832;28;8881;-72
2022/06/26 04:31:11;;;;;;;;;8.60;7.60;;;;;;;;4980228;28;8814;-77
2022/06/26 04:33:38;;;;;;;;;9.20;9.20;;;;;;;;4979671;28;8803;-74
2022/06/26 04:36:05;;;;;;;;;6.40;6.40;;;;;;;;4979859;28;8826;-66
2022/06/26 04:38:31;;;;;;;;;8.40;8.00;;;;;;;;4979656;28;8803;-73
2022/06/26 04:40:58;;;;;;;;;10.40;9.00;;;;;;;;4979891;28;8776;-71
2022/06/26 04:43:24;;;;;;;;;8.20;8.20;;;;;;;;4979564;28;9453;-69
2022/06/26 04:45:51;;;;;;;;;6.20;6.20;;;;;;;;4979976;28;8776;-65
2022/06/26 04:48:18;;;;;;;;;6.60;6.00;;;;;;;;4979524;28;8911;-69
2022/06/26 04:50:44;;;;;;;;;8.40;8.40;;;;;;;;4979619;28;8837;-75
2022/06/26 04:53:11;;;;;;;;;7.80;7.40;;;;;;;;4980004;28;8787;-73
2022/06/26 04:55:37;;;;;;;;;9.40;8.00;;;;;;;;4978555;28;8818;-68
2022/06/26 04:58:04;;;;;;;;;7.20;7.20;;;;;;;;4980322;28;8947;-76
2022/06/26 05:00:31;;;;;;;;;8.00;8.00;;;;;;;;4979007;28;8792;-76
2022/06/26 05:02:57;;;;;;;;;9.20;8.40;;;;;;;;4979468;28;8760;-67
2022/06/26 05:05:24;;;;;;;;;8.60;7.80;;;;;;;;4979363;28;8772;-68
2022/06/26 05:07:51;;;;;;;;;10.00;10.00;;;;;;;;4979251;28;8814;-75
2022/06/26 05:10:17;;;;;;;;;9.00;9.00;;;;;;;;4979513;28;8795;-74
2022/06/26 05:12:44;;;;;;;;;8.00;8.00;;;;;;;;4978990;28;8822;-70
2022/06/26 05:15:12;;;;;;;;;8.00;6.40;;;;;;;;4978731;28;8783;-71
2022/06/26 05:17:39;;;;;;;;;8.40;7.00;;;;;;;;4978714;28;8803;-74
2022/06/26 05:20:06;;;;;;;;;7.80;7.80;;;;;;;;4979185;28;8787;-67
2022/06/26 05:22:32;;;;;;;;;8.00;8.00;;;;;;;;4961627;28;8837;-69
2022/06/26 05:24:59;;;;;;;;;9.60;7.80;;;;;;;;4980008;28;8912;-75
2022/06/26 05:27:25;;;;;;;;;6.20;6.20;;;;;;;;4978329;28;8801;-71
2022/06/26 05:29:52;;;;;;;;;7.00;7.00;;;;;;;;4978397;28;8819;-73
2022/06/26 05:32:18;;;;;;;;;10.00;8.00;;;;;;;;4978386;28;8763;-66
2022/06/26 05:34:45;;;;;;;;;7.00;7.00;;;;;;;;4978407;28;8883;-72
2022/06/26 05:37:12;;;;;;;;;9.00;9.00;;;;;;;;4979136;28;8802;-73
2022/06/26 05:39:38;;;;;;;;;9.20;7.40;;;;;;;;4978208;28;8830;-68
2022/06/26 05:42:05;;;;;;;;;8.80;8.00;;;;;;;;4978459;28;8849;-75
2022/06/26 05:44:32;;;;;;;;;9.60;9.60;;;;;;;;4938727;28;8816;-74
2022/06/26 05:47:00;;;;;;;;;8.80;8.20;;;;;;;;4940175;28;8777;-69
2022/06/26 05:49:28;;;;;;;;;9.40;8.80;;;;;;;;4954271;28;8904;-71
2022/06/26 05:51:54;;;;;;;;;7.60;7.60;;;;;;;;4940716;29;8758;-65
2022/06/26 05:54:21;;;;;;;;;8.40;7.80;;;;;;;;4939396;28;8868;-72
2022/06/26 05:56:48;;;;;;;;;6.80;6.80;;;;;;;;4938265;29;9419;-74
2022/06/26 05:59:14;;;;;;;;;9.20;7.40;;;;;;;;4939676;28;8824;-68
2022/06/26 06:01:41;;;;;;;;;9.80;9.80;;;;;;;;4939439;28;8762;-73
2022/06/26 06:04:09;;;;;;;;;9.20;8.60;;;;;;;;4940341;29;8774;-75
2022/06/26 06:06:35;;;;;;;;;9.60;9.60;;;;;;;;4955025;28;8881;-68
2022/06/26 06:09:02;;;;;;;;;9.60;9.60;;;;;;;;4943386;28;8825;-73
2022/06/26 06:11:29;;;;;;;;;9.00;8.00;;;;;;;;4943483;28;8785;-66
2022/06/26 06:13:56;;;;;;;;;7.80;6.20;;;;;;;;4943705;28;8786;-73
2022/06/26 06:16:22;;;;;;;;;9.00;9.00;;;;;;;;4955836;29;8780;-70
2022/06/26 06:18:49;;;;;;;;;7.20;7.20;;;;;;;;4943277;28;8811;-69
2022/06/26 06:21:15;;;;;;;;;8.20;7.60;;;;;;;;4943445;28;8785;-75
2022/06/26 06:23:43;;;;;;;;;8.00;7.80;;;;;;;;4943318;28;8793;-71
2022/06/26 06:26:13;;;;;;;;;11.00;8.20;;;;;;;;4943213;28;8886;-73
2022/06/26 06:28:39;;;;;;;;;8.40;7.80;;;;;;;;4943312;28;8826;-75
2022/06/26 06:31:06;;;;;;;;;10.40;9.00;;;;;;;;4943657;29;8801;-73
2022/06/26 06:33:33;;;;;;;;;10.80;9.80;;;;;;;;4942643;28;8833;-66
2022/06/26 06:35:59;;;;;;;;;10.40;8.80;;;;;;;;4945618;28;8786;-75
2022/06/26 06:38:26;;;;;;;;;10.80;7.60;;;;;;;;4941806;29;9433;-59
2022/06/26 06:40:53;;;;;;;;;9.00;9.00;;;;;;;;4943238;28;8789;-75
2022/06/26 06:43:19;;;;;;;;;10.00;9.00;;;;;;;;4961607;28;8874;-74
2022/06/26 06:45:46;;;;;;;;;8.20;8.20;;;;;;;;4980947;28;8775;-73
2022/06/26 06:48:13;;;;;;;;;7.60;7.60;;;;;;;;4981447;28;8823;-68
2022/06/26 06:50:39;;;;;;;;;7.60;7.00;;;;;;;;4981686;28;8799;-74
2022/06/26 06:53:06;;;;;;;;;7.20;7.20;;;;;;;;4981843;28;8791;-70
2022/06/26 06:55:32;;;;;;;;;9.00;6.60;;;;;;;;4981643;28;8996;-61
2022/06/26 06:57:59;;;;;;;;;9.60;8.40;;;;;;;;4982273;28;8763;-70
2022/06/26 07:00:26;;;;;;;;;10.20;9.00;;;;;;;;4981559;28;8802;-75
2022/06/26 07:02:53;;;;;;;;;5.20;4.20;;;;;;;;4981515;28;8861;-72
2022/06/26 07:05:19;;;;;;;;;7.60;7.60;;;;;;;;4981207;28;8768;-65
2022/06/26 07:07:46;;;;;;;;;8.80;8.60;;;;;;;;4981373;28;9491;-70
2022/06/26 07:10:13;;;;;;;;;8.80;6.40;;;;;;;;4981532;28;8784;-72
2022/06/26 07:12:39;;;;;;;;;8.60;7.00;;;;;;;;4980895;28;8775;-74
2022/06/26 07:15:06;;;;;;;;;7.60;7.00;;;;;;;;4970013;28;8825;-67
2022/06/26 07:17:33;;;;;;;;;7.60;6.20;;;;;;;;4980192;28;8820;-74
2022/06/26 07:19:59;;;;;;;;;6.60;6.60;;;;;;;;4980049;28;8755;-69
2022/06/26 07:22:26;;;;;;;;;7.00;7.00;;;;;;;;4980432;28;8748;-71
2022/06/26 07:24:53;;;;;;;;;5.60;4.60;;;;;;;;4981332;28;8791;-71
2022/06/26 07:27:19;;;;;;;;;7.00;7.00;;;;;;;;4980365;28;8775;-70
2022/06/26 07:29:46;;;;;;;;;9.60;8.00;;;;;;;;4980501;28;8882;-69
2022/06/26 07:32:13;;;;;;;;;7.60;7.60;;;;;;;;4980760;28;8795;-73
2022/06/26 07:34:39;;;;;;;;;7.00;6.60;;;;;;;;4980759;28;8877;-71
2022/06/26 07:37:06;;;;;;;;;7.00;7.00;;;;;;;;4981105;28;8756;-72
2022/06/26 07:39:32;;;;;;;;;7.00;7.00;;;;;;;;4980029;28;8823;-71
2022/06/26 07:41:59;;;;;;;;;6.20;5.60;;;;;;;;4980702;28;8821;-71
2022/06/26 07:44:26;;;;;;;;;3.00;3.00;;;;;;;;4980392;28;8772;-71
2022/06/26 07:46:52;;;;;;;;;9.80;6.80;;;;;;;;4963439;28;8873;-71
2022/06/26 07:49:19;;;;;;;;;8.00;7.00;;;;;;;;4980620;28;8925;-70
2022/06/26 07:51:46;;;;;;;;;7.40;7.40;;;;;;;;4980242;28;8795;-73
2022/06/26 07:54:12;;;;;;;;;8.80;8.60;;;;;;;;4980496;28;8803;-69
2022/06/26 07:56:39;;;;;;;;;5.60;5.60;;;;;;;;4978992;28;8791;-72
2022/06/26 07:59:06;;;;;;;;;9.60;8.20;;;;;;;;4980365;28;8760;-71
2022/06/26 08:01:32;;;;;;;;;8.80;8.00;;;;;;;;4980119;28;8990;-72
2022/06/26 08:03:59;;;;;;;;;6.60;6.60;;;;;;;;4980881;28;8755;-68
2022/06/26 08:06:26;;;;;;;;;10.00;8.40;;;;;;;;4962748;28;8817;-71
2022/06/26 08:08:53;;;;;;;;;9.60;9.40;;;;;;;;4980041;28;8889;-73
2022/06/26 08:11:19;;;;;;;;;8.20;8.00;;;;;;;;4980203;28;8878;-68
2022/06/26 08:13:49;;;;;;;;;9.60;9.60;;;;;;;;4980278;28;8767;-75
2022/06/26 08:16:15;;;;;;;;;8.40;6.20;;;;;;;;4980846;28;8776;-75
2022/06/26 08:18:42;;;;;;;;;7.00;7.00;;;;;;;;4979996;28;8767;-64
2022/06/26 08:23:54;;;;;;;;;8.00;8.00;;;;;;;;4980338;28;8787;-70
2022/06/26 08:26:20;;;;;;;;;7.20;6.00;;;;;;;;4979822;28;8863;-74
2022/06/26 08:28:47;;;;;;;;;9.00;6.60;;;;;;;;4979791;28;8784;-72
2022/06/26 08:31:14;;;;;;;;;6.60;6.00;;;;;;;;4980107;28;8910;-72
2022/06/26 08:33:40;;;;;;;;;7.80;7.80;;;;;;;;4979588;28;8771;-75
2022/06/26 08:36:07;;;;;;;;;7.60;5.20;;;;;;;;4979988;28;8772;-67
2022/06/26 08:38:33;;;;;;;;;6.00;6.00;;;;;;;;4979231;28;8853;-74
2022/06/26 08:41:00;;;;;;;;;4.20;4.20;;;;;;;;4979709;28;8768;-69
2022/06/26 08:43:27;;;;;;;;;5.80;5.80;;;;;;;;4978886;28;8784;-67
2022/06/26 08:45:54;;;;;;;;;6.60;5.80;;;;;;;;4979352;28;8764;-76
2022/06/26 08:48:21;;;;;;;;;8.80;6.80;;;;;;;;4978733;28;8806;-72
2022/06/26 08:50:48;;;;;;;;;6.20;6.20;;;;;;;;4979610;28;8802;-63
2022/06/26 08:53:17;;;;;;;;;3.40;3.40;;;;;;;;4979127;28;8779;-74
2022/06/26 08:55:44;;;;;;;;;7.40;7.40;;;;;;;;4967862;28;8904;-75
2022/06/26 08:58:11;;;;;;;;;8.40;7.40;;;;;;;;4978565;28;8894;-63
2022/06/26 09:00:37;;;;;;;;;7.60;6.80;;;;;;;;4978642;28;8803;-65
2022/06/26 09:03:04;;;;;;;;;7.00;7.00;;;;;;;;4978860;28;8755;-74
2022/06/26 09:05:31;;;;;;;;;9.00;6.80;;;;;;;;4978753;28;8923;-68
2022/06/26 09:07:59;;;;;;;;;7.80;6.80;;;;;;;;4978867;28;8862;-73
2022/06/26 09:10:34;;;;;;;;;11.00;7.80;;;;;;;;4978161;28;8810;-71
2022/06/26 09:13:01;;;;;;;;;7.60;7.60;;;;;;;;4961923;28;8763;-76
2022/06/26 09:15:28;;;;;;;;;10.20;9.00;;;;;;;;4961027;28;8767;-68
2022/06/26 09:17:58;;;;;;;;;8.60;8.20;;;;;;;;4978460;28;8787;-68
2022/06/26 09:20:25;;;;;;;;;7.40;7.40;;;;;;;;4978376;28;8763;-75
2022/06/26 09:22:55;;;;;;;;;8.00;7.20;;;;;;;;4978812;28;8790;-75
2022/06/26 09:25:33;;;;;;;;;9.60;9.60;;;;;;;;4961292;28;8779;-75
2022/06/26 09:28:09;;;;;;;;;8.60;8.00;;;;;;;;4977308;28;8790;-74
2022/06/26 09:30:56;;;;;;;;;6.60;6.60;;;;;;;;4960927;28;8798;-59
2022/06/26 09:33:24;;;;;;;;;3.20;2.40;;;;;;;;4945917;28;8793;-74
2022/06/26 09:35:50;;;;;;;;;4.00;4.00;;;;;;;;4959033;28;8785;-75
2022/06/26 09:38:21;;;;;;;;;6.00;6.00;;;;;;;;4957664;28;8859;-74
2022/06/26 09:41:06;;;;;;;;;4.40;4.40;;;;;;;;4959053;28;8800;-74
2022/06/26 09:43:37;;;;;;;;;6.40;5.40;;;;;;;;4958459;28;8818;-75
2022/06/26 09:46:08;;;;;;;;;3.40;3.40;;;;;;;;4945602;28;8752;-75
2022/06/26 09:48:34;;;;;;;;;6.00;5.00;;;;;;;;4977847;28;8901;-76
2022/06/26 09:51:01;;;;;;;;;8.00;6.00;;;;;;;;4960828;28;9556;-60
2022/06/26 09:53:28;;;;;;;;;7.00;6.00;;;;;;;;4978246;28;8782;-66
2022/06/26 09:55:55;;;;;;;;;5.80;5.80;;;;;;;;4978178;28;8800;-76
2022/06/26 09:58:22;;;;;;;;;5.00;5.00;;;;;;;;4978657;28;8756;-69
2022/06/26 10:06:25;;;;;;;;;9.20;8.40;;;;;;;;4978132;28;8779;-75
2022/06/26 10:08:52;;;;;;;;;7.80;7.60;;;;;;;;4978146;28;8800;-64
2022/06/26 10:11:19;;;;;;;;;8.20;8.20;;;;;;;;4960775;28;8807;-73
2022/06/26 10:13:45;;;;;;;;;7.60;6.20;;;;;;;;4978453;28;8787;-72
2022/06/26 10:16:25;;;;;;;;;6.20;6.20;;;;;;;;4979047;28;8799;-76
2022/06/26 10:19:05;;;;;;;;;6.80;6.60;;;;;;;;4977892;28;8831;-76
2022/06/26 10:21:38;;;;;;;;;9.40;9.40;;;;;;;;4978042;28;8779;-66
2022/06/26 10:24:05;;;;;;;;;9.20;8.40;;;;;;;;4977122;28;8778;-64
2022/06/26 10:26:32;;;;;;;;;10.40;10.40;;;;;;;;4977946;28;8803;-75
2022/06/26 10:29:16;;;;;;;;;9.20;8.20;;;;;;;;4978571;28;8772;-53
2022/06/26 10:31:48;;;;;;;;;6.60;6.00;;;;;;;;4976801;28;9007;-66
2022/06/26 10:34:22;;;;;;;;;7.60;6.80;;;;;;;;4978517;28;8759;-76
2022/06/26 10:37:10;;;;;;;;;7.00;7.00;;;;;;;;4960970;28;8772;-49
2022/06/26 10:39:43;;;;;;;;;8.80;7.80;;;;;;;;4978072;28;9020;-75
2022/06/26 10:45:04;;;;;;;;;7.00;7.00;;;;;;;;4977892;28;8795;-71
2022/06/26 10:47:47;;;;;;;;;8.60;8.60;;;;;;;;4977485;28;8755;-75
2022/06/26 10:50:23;;;;;;;;;9.00;8.20;;;;;;;;4960874;28;8788;-74
2022/06/26 10:52:50;;;;;;;;;11.60;9.80;;;;;;;;4978249;28;8839;-59
2022/06/26 10:55:16;;;;;;;;;9.20;9.00;;;;;;;;4981507;28;8799;-74
2022/06/26 10:57:43;;;;;;;;;10.40;10.00;;;;;;;;4981489;28;8771;-64
2022/06/26 11:00:12;;;;;;;;;13.00;11.00;;;;;;;;4981477;28;8771;-74
2022/06/26 11:02:40;;;;;;;;;10.80;10.80;;;;;;;;4979827;28;8926;-64
2022/06/26 11:05:07;;;;;;;;;7.20;7.00;;;;;;;;4981997;28;8779;-63
2022/06/26 11:07:55;;;;;;;;;11.00;11.00;;;;;;;;4981689;28;8767;-66
2022/06/26 11:10:22;;;;;;;;;13.40;11.20;;;;;;;;4964599;28;8799;-69
2022/06/26 11:12:49;;;;;;;;;15.40;12.20;;;;;;;;4981462;28;8767;-55
2022/06/26 11:15:23;;;;;;;;;12.60;12.60;;;;;;;;4981556;28;8795;-66
2022/06/26 11:17:57;;;;;;;;;13.20;9.40;;;;;;;;4980923;28;8755;-75
2022/06/26 11:23:15;;;;;;;;;13.25;12.00;;;;;;;;4980433;28;8775;-58
2022/06/26 11:25:42;;;;;;;;;13.40;11.80;;;;;;;;4980365;28;8878;-56
2022/06/26 11:28:09;;;;;;;;;12.60;10.60;;;;;;;;4981248;28;8768;-50
2022/06/26 11:30:39;;;;;;;;;13.00;11.00;;;;;;;;4980050;28;8878;-65
2022/06/26 11:33:07;;;;;;;;;12.00;11.20;;;;;;;;4980161;28;8805;-49
2022/06/26 11:35:36;;;;;;;;;13.20;12.20;;;;;;;;4963430;28;8830;-75
2022/06/26 11:38:10;;;;;;;;;17.80;12.60;;;;;;;;4980814;28;8775;-68
2022/06/26 11:40:36;;;;;;;;;14.60;13.00;;;;;;;;4981009;28;8812;-76
2022/06/26 11:43:03;;;;;;;;;15.00;12.40;;;;;;;;4963601;28;8784;-69
2022/06/26 11:45:32;;;;;;;;;13.20;11.60;;;;;;;;4980080;28;8767;-73
2022/06/26 11:48:00;;;;;;;;;16.80;13.60;;;;;;;;4980149;28;8779;-74
2022/06/26 11:50:27;;;;;;;;;15.00;13.80;;;;;;;;4979769;28;8821;-75
2022/06/26 11:52:57;;;;;;;;;11.20;11.00;;;;;;;;4980356;28;8802;-71
2022/06/26 11:55:24;;;;;;;;;10.60;10.60;;;;;;;;4963233;28;8842;-72
2022/06/26 11:57:51;;;;;;;;;12.60;12.00;;;;;;;;4979097;28;8771;-75
2022/06/26 12:00:21;;;;;;;;;9.00;8.80;;;;;;;;4979884;28;8779;-74
2022/06/26 12:02:50;;;;;;;;;10.00;9.40;;;;;;;;4959187;28;8888;-64
2022/06/26 12:05:35;;;;;;;;;10.20;9.60;;;;;;;;4958870;28;8790;-63
2022/06/26 12:08:02;;;;;;;;;13.40;12.00;;;;;;;;4975589;28;8778;-76
2022/06/26 12:10:29;;;;;;;;;12.60;12.60;;;;;;;;4960349;28;8790;-74
2022/06/26 12:12:55;;;;;;;;;8.80;8.80;;;;;;;;4960695;28;8762;-59
2022/06/26 12:15:25;;;;;;;;;16.60;14.00;;;;;;;;4959707;28;8785;-75
2022/06/26 12:17:59;;;;;;;;;12.00;11.00;;;;;;;;4977588;28;8783;-75
2022/06/26 12:20:26;;;;;;;;;14.40;12.80;;;;;;;;4979206;28;8787;-62
2022/06/26 12:22:53;;;;;;;;;18.80;17.20;;;;;;;;4979168;28;8803;-75
2022/06/26 12:25:26;;;;;;;;;15.00;15.00;;;;;;;;4980268;28;8823;-74
2022/06/26 12:27:53;;;;;;;;;17.80;15.80;;;;;;;;4980027;28;8803;-57
2022/06/26 12:30:40;;;;;;;;;22.60;16.80;;;;;;;;4977920;28;8799;-66
2022/06/26 12:33:06;;;;;;;;;15.00;14.80;;;;;;;;4979342;28;8881;-71
2022/06/26 12:35:33;;;;;;;;;12.60;12.00;;;;;;;;4978727;28;8819;-76
2022/06/26 12:38:00;;;;;;;;;13.40;11.60;;;;;;;;4979311;28;8767;-66
2022/06/26 12:40:27;;;;;;;;;12.40;12.00;;;;;;;;4979234;28;8794;-72
2022/06/26 12:42:54;;;;;;;;;12.80;11.80;;;;;;;;4979770;28;8763;-76
2022/06/26 12:45:20;;;;;;;;;15.20;12.60;;;;;;;;4978718;28;8808;-62
2022/06/26 12:47:50;;;;;;;;;14.60;9.80;;;;;;;;4978697;28;9476;-75
2022/06/26 12:50:17;;;;;;;;;14.00;12.60;;;;;;;;4978835;28;8870;-70
2022/06/26 12:52:44;;;;;;;;;13.20;12.00;;;;;;;;4978987;28;9089;-75
2022/06/26 12:55:10;;;;;;;;;11.20;11.20;;;;;;;;4979608;28;8748;-67
2022/06/26 12:57:37;;;;;;;;;12.80;11.60;;;;;;;;4979370;28;8821;-75
2022/06/26 13:00:05;;;;;;;;;10.40;9.00;;;;;;;;4979078;28;8771;-66
2022/06/26 13:02:31;;;;;;;;;9.40;8.00;;;;;;;;4977306;28;8756;-75
2022/06/26 13:04:58;;;;;;;;;11.20;9.60;;;;;;;;4978740;28;8785;-76
2022/06/26 13:07:25;;;;;;;;;12.00;9.40;;;;;;;;4978831;28;8743;-73
2022/06/26 13:09:51;;;;;;;;;8.40;8.00;;;;;;;;4962319;28;8838;-72
2022/06/26 13:12:18;;;;;;;;;11.20;9.20;;;;;;;;4978489;28;8860;-69
2022/06/26 13:14:44;;;;;;;;;10.80;9.60;;;;;;;;4979059;28;8771;-71
2022/06/26 13:17:11;;;;;;;;;9.00;9.00;;;;;;;;4977880;28;8765;-72
2022/06/26 13:19:38;;;;;;;;;10.00;8.80;;;;;;;;4961212;28;8842;-74
2022/06/26 13:22:05;;;;;;;;;12.60;10.80;;;;;;;;4979028;28;8760;-71
2022/06/26 13:24:32;;;;;;;;;11.40;10.40;;;;;;;;4977971;28;9459;-74
2022/06/26 13:26:58;;;;;;;;;12.40;9.40;;;;;;;;4978514;28;8771;-68
2022/06/26 13:29:25;;;;;;;;;12.80;10.80;;;;;;;;4978243;28;9091;-72
2022/06/26 13:31:52;;;;;;;;;9.20;9.20;;;;;;;;4969910;28;9544;-75
2022/06/26 13:34:19;;;;;;;;;13.40;10.20;;;;;;;;4961302;28;8846;-75
2022/06/26 13:36:45;;;;;;;;;11.60;10.40;;;;;;;;4978343;28;8779;-67
2022/06/26 13:39:12;;;;;;;;;12.20;11.00;;;;;;;;4979049;28;8885;-75
2022/06/26 13:41:39;;;;;;;;;12.80;11.60;;;;;;;;4978484;28;8784;-75
2022/06/26 13:44:06;;;;;;;;;12.40;11.00;;;;;;;;4978682;28;8951;-76
2022/06/26 13:46:33;;;;;;;;;12.20;10.40;;;;;;;;4960116;28;9512;-72
2022/06/26 13:48:59;;;;;;;;;9.00;9.00;;;;;;;;4978923;28;8833;-73
2022/06/26 13:51:26;;;;;;;;;16.00;12.00;;;;;;;;4977826;28;8784;-72
2022/06/26 13:53:53;;;;;;;;;11.40;9.20;;;;;;;;4978189;28;8877;-74
2022/06/26 13:56:23;;;;;;;;;8.60;8.20;;;;;;;;4960603;28;8854;-73
2022/06/26 13:58:49;;;;;;;;;11.80;10.60;;;;;;;;4978128;28;8768;-70
2022/06/26 14:01:16;;;;;;;;;11.00;9.60;;;;;;;;4978749;28;8790;-76
2022/06/26 14:03:42;;;;;;;;;10.60;10.00;;;;;;;;4978093;28;8794;-76
2022/06/26 14:06:09;;;;;;;;;10.80;10.00;;;;;;;;4978092;28;8752;-70
2022/06/26 14:08:36;;;;;;;;;6.80;5.40;;;;;;;;4977813;28;9417;-74
2022/06/26 14:11:02;;;;;;;;;11.80;10.40;;;;;;;;4978176;28;8781;-75
2022/06/26 14:13:29;;;;;;;;;10.20;10.20;;;;;;;;4978014;28;8862;-58
2022/06/26 14:15:56;;;;;;;;;11.40;10.00;;;;;;;;4978385;28;9496;-67
2022/06/26 14:18:23;;;;;;;;;10.40;10.40;;;;;;;;4977721;28;8878;-58
2022/06/26 14:20:50;;;;;;;;;9.60;9.40;;;;;;;;4978092;28;8764;-75
2022/06/26 14:26:03;;;;;;;;;10.20;10.20;;;;;;;;4977451;28;8783;-61
2022/06/26 14:28:33;;;;;;;;;10.60;7.40;;;;;;;;4979682;28;8764;-73
2022/06/26 14:31:00;;;;;;;;;10.00;9.40;;;;;;;;4981041;28;8767;-67
2022/06/26 14:33:27;;;;;;;;;10.20;9.20;;;;;;;;4981168;28;8763;-65
2022/06/26 14:35:54;;;;;;;;;10.40;10.40;;;;;;;;4981698;28;8805;-73
2022/06/26 14:38:20;;;;;;;;;10.00;8.40;;;;;;;;4980940;28;8767;-68
2022/06/26 14:40:47;;;;;;;;;9.00;8.40;;;;;;;;4981563;28;8801;-62
2022/06/26 14:43:14;;;;;;;;;11.40;9.60;;;;;;;;4981780;28;8830;-72
2022/06/26 14:45:42;;;;;;;;;10.80;9.80;;;;;;;;4964886;28;8854;-72
2022/06/26 14:48:09;;;;;;;;;6.80;6.20;;;;;;;;4961964;28;8909;-68
2022/06/26 14:50:36;;;;;;;;;9.80;9.80;;;;;;;;4944333;28;8769;-70
2022/06/26 14:53:02;;;;;;;;;13.00;8.00;;;;;;;;4962053;28;8769;-74
2022/06/26 14:55:29;;;;;;;;;10.40;10.00;;;;;;;;4961614;28;8780;-71
2022/06/26 14:57:57;;;;;;;;;9.00;6.80;;;;;;;;4962603;28;8880;-68
2022/06/26 15:00:24;;;;;;;;;9.80;7.60;;;;;;;;4961638;28;8769;-72
2022/06/26 15:02:50;;;;;;;;;8.40;8.40;;;;;;;;4961416;28;8779;-65
2022/06/26 15:05:17;;;;;;;;;6.00;6.00;;;;;;;;4980218;28;8777;-58
2022/06/26 15:07:43;;;;;;;;;8.60;8.00;;;;;;;;4981228;28;8748;-62